Terminal Aerodrome Forecast
Issued by NWS

Home | Current Version | Previous Version | Text Only | Print | Product List | Glossary On
Versions: 1 2 3 4 5 6 7 8 9 10 11 12 13 14 15 16 17
000
FTUS41 KAKQ 211700
TAFPHF
TAF
KPHF 211739Z 2118/2218 31008KT P6SM SCT050
     FM212300 23006KT P6SM SCT080
     FM220700 30006KT P6SM SCT250
     FM221300 34008KT P6SM SKC=

USA.gov is the U.S. government's official web portal to all federal, state and local government web resources and services.